sensor_id;sensor_type;location;lat;lon;timestamp;P1;durP1;ratioP1;P2;durP2;ratioP2
41167;SDS011;26906;45.658;9.272;2024-03-23T06:41:51;70.88;;;40.15;;
41167;SDS011;26906;45.658;9.272;2024-03-23T06:44:21;88.38;;;40.97;;
41167;SDS011;26906;45.658;9.272;2024-03-23T06:46:47;72.50;;;39.90;;
41167;SDS011;26906;45.658;9.272;2024-03-23T06:49:14;75.07;;;39.45;;
41167;SDS011;26906;45.658;9.272;2024-03-23T06:51:41;77.03;;;41.63;;
41167;SDS011;26906;45.658;9.272;2024-03-23T06:54:07;72.93;;;39.53;;
41167;SDS011;26906;45.658;9.272;2024-03-23T06:56:33;79.05;;;40.53;;
41167;SDS011;26906;45.658;9.272;2024-03-23T06:58:59;78.60;;;40.75;;
41167;SDS011;26906;45.658;9.272;2024-03-23T07:01:24;71.82;;;42.08;;
41167;SDS011;26906;45.658;9.272;2024-03-23T07:03:50;71.75;;;39.90;;
41167;SDS011;26906;45.658;9.272;2024-03-23T07:06:16;74.32;;;40.55;;
41167;SDS011;26906;45.658;9.272;2024-03-23T07:08:41;71.13;;;41.80;;
41167;SDS011;26906;45.658;9.272;2024-03-23T07:11:07;75.63;;;42.08;;
41167;SDS011;26906;45.658;9.272;2024-03-23T07:13:34;74.47;;;41.60;;
41167;SDS011;26906;45.658;9.272;2024-03-23T07:16:00;73.53;;;42.13;;
41167;SDS011;26906;45.658;9.272;2024-03-23T07:18:25;68.72;;;41.20;;
41167;SDS011;26906;45.658;9.272;2024-03-23T07:20:52;69.45;;;40.28;;
41167;SDS011;26906;45.658;9.272;2024-03-23T07:23:22;73.63;;;40.97;;
41167;SDS011;26906;45.658;9.272;2024-03-23T07:26:30;72.05;;;38.80;;
41167;SDS011;26906;45.658;9.272;2024-03-23T07:28:55;65.18;;;38.60;;
41167;SDS011;26906;45.658;9.272;2024-03-23T07:31:22;60.80;;;36.40;;
41167;SDS011;26906;45.658;9.272;2024-03-23T07:33:49;59.95;;;37.63;;
41167;SDS011;26906;45.658;9.272;2024-03-23T07:36:15;61.20;;;36.00;;
41167;SDS011;26906;45.658;9.272;2024-03-23T07:38:44;58.38;;;33.95;;
41167;SDS011;26906;45.658;9.272;2024-03-23T07:41:14;57.17;;;33.55;;
41167;SDS011;26906;45.658;9.272;2024-03-23T07:43:45;51.72;;;32.45;;
41167;SDS011;26906;45.658;9.272;2024-03-23T07:46:11;53.72;;;32.53;;
41167;SDS011;26906;45.658;9.272;2024-03-23T07:48:37;51.13;;;30.85;;
41167;SDS011;26906;45.658;9.272;2024-03-23T07:51:08;45.60;;;29.02;;
41167;SDS011;26906;45.658;9.272;2024-03-23T07:53:47;41.45;;;23.27;;
41167;SDS011;26906;45.658;9.272;2024-03-23T07:56:16;38.38;;;22.77;;
41167;SDS011;26906;45.658;9.272;2024-03-23T07:58:43;32.05;;;21.15;;
41167;SDS011;26906;45.658;9.272;2024-03-23T08:01:12;29.48;;;19.23;;
41167;SDS011;26906;45.658;9.272;2024-03-23T08:03:42;24.92;;;17.10;;
41167;SDS011;26906;45.658;9.272;2024-03-23T08:06:12;28.02;;;19.42;;
41167;SDS011;26906;45.658;9.272;2024-03-23T08:08:40;28.63;;;20.45;;
41167;SDS011;26906;45.658;9.272;2024-03-23T08:11:07;23.90;;;16.75;;
41167;SDS011;26906;45.658;9.272;2024-03-23T08:13:33;27.38;;;17.15;;
41167;SDS011;26906;45.658;9.272;2024-03-23T08:16:00;28.88;;;17.55;;
41167;SDS011;26906;45.658;9.272;2024-03-23T08:18:27;26.83;;;17.58;;
41167;SDS011;26906;45.658;9.272;2024-03-23T08:21:00;26.50;;;17.38;;
41167;SDS011;26906;45.658;9.272;2024-03-23T08:23:27;25.17;;;17.73;;
41167;SDS011;26906;45.658;9.272;2024-03-23T08:25:59;24.55;;;17.02;;
41167;SDS011;26906;45.658;9.272;2024-03-23T08:28:26;29.38;;;18.38;;
41167;SDS011;26906;45.658;9.272;2024-03-23T08:30:53;23.92;;;15.52;;
41167;SDS011;26906;45.658;9.272;2024-03-23T08:33:20;24.30;;;15.95;;
41167;SDS011;26906;45.658;9.272;2024-03-23T08:35:53;23.33;;;16.20;;
41167;SDS011;26906;45.658;9.272;2024-03-23T08:38:21;24.45;;;15.43;;
41167;SDS011;26906;45.658;9.272;2024-03-23T08:40:47;23.90;;;16.02;;
41167;SDS011;26906;45.658;9.272;2024-03-23T08:43:13;24.05;;;16.02;;
41167;SDS011;26906;45.658;9.272;2024-03-23T08:45:39;20.60;;;15.68;;
41167;SDS011;26906;45.658;9.272;2024-03-23T08:48:04;24.10;;;16.00;;
41167;SDS011;26906;45.658;9.272;2024-03-23T08:50:30;22.77;;;16.05;;
41167;SDS011;26906;45.658;9.272;2024-03-23T08:52:57;26.33;;;16.38;;
41167;SDS011;26906;45.658;9.272;2024-03-23T08:55:39;24.00;;;15.75;;
41167;SDS011;26906;45.658;9.272;2024-03-23T08:58:07;24.88;;;15.23;;
41167;SDS011;26906;45.658;9.272;2024-03-23T09:00:35;21.77;;;14.60;;
41167;SDS011;26906;45.658;9.272;2024-03-23T09:03:02;24.75;;;16.30;;
41167;SDS011;26906;45.658;9.272;2024-03-23T09:05:38;19.23;;;14.30;;
41167;SDS011;26906;45.658;9.272;2024-03-23T09:08:16;26.95;;;15.88;;
41167;SDS011;26906;45.658;9.272;2024-03-23T09:10:53;23.00;;;16.23;;
41167;SDS011;26906;45.658;9.272;2024-03-23T09:13:29;27.60;;;16.23;;
41167;SDS011;26906;45.658;9.272;2024-03-23T09:16:05;29.75;;;16.67;;
41167;SDS011;26906;45.658;9.272;2024-03-23T09:18:34;23.23;;;15.82;;
41167;SDS011;26906;45.658;9.272;2024-03-23T09:21:03;26.70;;;16.25;;
41167;SDS011;26906;45.658;9.272;2024-03-23T09:23:44;27.08;;;16.88;;
41167;SDS011;26906;45.658;9.272;2024-03-23T09:26:15;24.10;;;16.05;;
41167;SDS011;26906;45.658;9.272;2024-03-23T09:28:50;27.35;;;15.90;;
41167;SDS011;26906;45.658;9.272;2024-03-23T09:31:24;27.00;;;15.32;;
41167;SDS011;26906;45.658;9.272;2024-03-23T09:33:53;25.38;;;16.13;;
41167;SDS011;26906;45.658;9.272;2024-03-23T09:36:21;25.27;;;15.57;;
41167;SDS011;26906;45.658;9.272;2024-03-23T09:38:52;25.95;;;15.82;;
41167;SDS011;26906;45.658;9.272;2024-03-23T09:41:26;26.42;;;15.35;;
41167;SDS011;26906;45.658;9.272;2024-03-23T09:43:55;22.40;;;13.98;;
41167;SDS011;26906;45.658;9.272;2024-03-23T09:46:38;24.83;;;14.23;;
41167;SDS011;26906;45.658;9.272;2024-03-23T09:49:21;24.42;;;14.75;;
41167;SDS011;26906;45.658;9.272;2024-03-23T09:52:03;22.83;;;13.13;;
41167;SDS011;26906;45.658;9.272;2024-03-23T09:54:41;20.13;;;12.95;;
41167;SDS011;26906;45.658;9.272;2024-03-23T09:57:13;20.73;;;12.65;;
41167;SDS011;26906;45.658;9.272;2024-03-23T09:59:40;20.70;;;13.32;;
41167;SDS011;26906;45.658;9.272;2024-03-23T10:02:09;19.90;;;12.57;;
41167;SDS011;26906;45.658;9.272;2024-03-23T10:04:41;19.25;;;12.65;;
41167;SDS011;26906;45.658;9.272;2024-03-23T10:07:17;19.30;;;12.77;;
41167;SDS011;26906;45.658;9.272;2024-03-23T10:09:49;19.42;;;13.02;;
41167;SDS011;26906;45.658;9.272;2024-03-23T10:12:20;18.20;;;13.48;;
41167;SDS011;26906;45.658;9.272;2024-03-23T10:14:50;20.27;;;12.60;;
41167;SDS011;26906;45.658;9.272;2024-03-23T10:17:23;19.23;;;12.63;;
41167;SDS011;26906;45.658;9.272;2024-03-23T10:19:58;22.67;;;13.48;;
41167;SDS011;26906;45.658;9.272;2024-03-23T10:22:30;18.20;;;12.20;;
41167;SDS011;26906;45.658;9.272;2024-03-23T10:25:08;22.65;;;12.93;;
41167;SDS011;26906;45.658;9.272;2024-03-23T10:27:36;22.00;;;13.90;;
41167;SDS011;26906;45.658;9.272;2024-03-23T10:30:20;18.17;;;13.52;;
41167;SDS011;26906;45.658;9.272;2024-03-23T10:32:52;23.40;;;14.05;;
41167;SDS011;26906;45.658;9.272;2024-03-23T10:35:36;20.27;;;13.00;;
41167;SDS011;26906;45.658;9.272;2024-03-23T10:38:06;20.05;;;13.57;;
41167;SDS011;26906;45.658;9.272;2024-03-23T10:40:35;20.67;;;14.35;;
41167;SDS011;26906;45.658;9.272;2024-03-23T10:43:08;23.52;;;14.95;;
41167;SDS011;26906;45.658;9.272;2024-03-23T10:45:37;25.02;;;13.93;;
41167;SDS011;26906;45.658;9.272;2024-03-23T10:48:03;17.90;;;13.18;;
41167;SDS011;26906;45.658;9.272;2024-03-23T10:50:29;23.20;;;14.88;;
41167;SDS011;26906;45.658;9.272;2024-03-23T10:52:55;24.15;;;14.90;;
41167;SDS011;26906;45.658;9.272;2024-03-23T10:57:58;20.17;;;14.52;;
41167;SDS011;26906;45.658;9.272;2024-03-23T11:00:27;23.20;;;15.52;;
41167;SDS011;26906;45.658;9.272;2024-03-23T11:02:53;23.95;;;15.55;;
41167;SDS011;26906;45.658;9.272;2024-03-23T11:05:28;24.33;;;15.88;;
41167;SDS011;26906;45.658;9.272;2024-03-23T11:07:54;24.60;;;15.13;;
41167;SDS011;26906;45.658;9.272;2024-03-23T11:10:30;21.73;;;16.05;;
41167;SDS011;26906;45.658;9.272;2024-03-23T11:13:21;26.25;;;15.90;;
41167;SDS011;26906;45.658;9.272;2024-03-23T11:16:05;27.65;;;16.17;;
41167;SDS011;26906;45.658;9.272;2024-03-23T11:18:41;30.38;;;16.80;;
41167;SDS011;26906;45.658;9.272;2024-03-23T11:21:10;28.88;;;16.33;;
41167;SDS011;26906;45.658;9.272;2024-03-23T11:23:39;25.50;;;16.77;;
41167;SDS011;26906;45.658;9.272;2024-03-23T11:26:12;25.02;;;15.63;;
41167;SDS011;26906;45.658;9.272;2024-03-23T11:28:38;25.30;;;16.73;;
41167;SDS011;26906;45.658;9.272;2024-03-23T11:31:08;24.58;;;15.65;;
41167;SDS011;26906;45.658;9.272;2024-03-23T11:33:40;27.88;;;16.67;;
41167;SDS011;26906;45.658;9.272;2024-03-23T11:36:07;31.25;;;16.35;;
41167;SDS011;26906;45.658;9.272;2024-03-23T11:38:43;26.42;;;16.00;;
41167;SDS011;26906;45.658;9.272;2024-03-23T11:41:10;25.55;;;17.52;;
41167;SDS011;26906;45.658;9.272;2024-03-23T11:43:42;27.55;;;16.90;;
41167;SDS011;26906;45.658;9.272;2024-03-23T11:46:22;27.08;;;17.58;;
41167;SDS011;26906;45.658;9.272;2024-03-23T11:48:53;27.88;;;17.70;;
41167;SDS011;26906;45.658;9.272;2024-03-23T11:51:19;28.30;;;17.75;;
41167;SDS011;26906;45.658;9.272;2024-03-23T11:53:45;26.67;;;17.60;;
41167;SDS011;26906;45.658;9.272;2024-03-23T11:56:11;32.20;;;18.85;;
41167;SDS011;26906;45.658;9.272;2024-03-23T11:58:37;30.30;;;19.45;;
41167;SDS011;26906;45.658;9.272;2024-03-23T12:01:09;30.13;;;19.98;;
41167;SDS011;26906;45.658;9.272;2024-03-23T12:03:39;28.58;;;18.05;;
41167;SDS011;26906;45.658;9.272;2024-03-23T12:06:09;29.65;;;19.60;;
41167;SDS011;26906;45.658;9.272;2024-03-23T12:08:37;29.85;;;19.42;;
41167;SDS011;26906;45.658;9.272;2024-03-23T12:11:13;36.13;;;19.60;;
41167;SDS011;26906;45.658;9.272;2024-03-23T12:13:42;26.88;;;18.75;;
41167;SDS011;26906;45.658;9.272;2024-03-23T12:16:10;33.92;;;19.15;;
41167;SDS011;26906;45.658;9.272;2024-03-23T12:18:37;38.65;;;20.27;;
41167;SDS011;26906;45.658;9.272;2024-03-23T12:21:07;29.85;;;20.42;;
41167;SDS011;26906;45.658;9.272;2024-03-23T12:23:38;27.50;;;19.10;;
41167;SDS011;26906;45.658;9.272;2024-03-23T12:26:06;32.50;;;21.17;;
41167;SDS011;26906;45.658;9.272;2024-03-23T12:28:32;31.17;;;20.77;;
41167;SDS011;26906;45.658;9.272;2024-03-23T12:30:58;32.88;;;21.58;;
41167;SDS011;26906;45.658;9.272;2024-03-23T12:33:24;33.42;;;21.50;;
41167;SDS011;26906;45.658;9.272;2024-03-23T12:35:50;33.90;;;21.80;;
41167;SDS011;26906;45.658;9.272;2024-03-23T12:38:16;33.70;;;20.52;;
41167;SDS011;26906;45.658;9.272;2024-03-23T12:40:49;34.50;;;22.23;;
41167;SDS011;26906;45.658;9.272;2024-03-23T12:43:15;33.33;;;21.92;;
41167;SDS011;26906;45.658;9.272;2024-03-23T12:45:46;37.05;;;22.33;;
41167;SDS011;26906;45.658;9.272;2024-03-23T12:48:12;37.15;;;22.77;;
41167;SDS011;26906;45.658;9.272;2024-03-23T12:50:38;34.17;;;22.42;;
41167;SDS011;26906;45.658;9.272;2024-03-23T12:53:04;38.75;;;23.83;;
41167;SDS011;26906;45.658;9.272;2024-03-23T12:55:29;40.83;;;22.60;;
41167;SDS011;26906;45.658;9.272;2024-03-23T12:57:55;37.22;;;23.73;;
41167;SDS011;26906;45.658;9.272;2024-03-23T13:00:21;37.55;;;23.25;;
41167;SDS011;26906;45.658;9.272;2024-03-23T13:02:47;35.33;;;23.55;;
41167;SDS011;26906;45.658;9.272;2024-03-23T13:05:14;34.65;;;23.92;;
41167;SDS011;26906;45.658;9.272;2024-03-23T13:07:39;36.67;;;23.90;;
41167;SDS011;26906;45.658;9.272;2024-03-23T13:10:08;36.90;;;24.13;;
41167;SDS011;26906;45.658;9.272;2024-03-23T13:12:35;39.10;;;25.30;;
41167;SDS011;26906;45.658;9.272;2024-03-23T13:15:01;47.88;;;26.80;;
41167;SDS011;26906;45.658;9.272;2024-03-23T13:17:29;38.03;;;26.38;;
41167;SDS011;26906;45.658;9.272;2024-03-23T13:19:55;37.80;;;25.55;;
41167;SDS011;26906;45.658;9.272;2024-03-23T13:22:21;36.80;;;25.67;;
41167;SDS011;26906;45.658;9.272;2024-03-23T13:24:48;42.78;;;27.23;;
41167;SDS011;26906;45.658;9.272;2024-03-23T13:27:13;43.67;;;27.83;;
41167;SDS011;26906;45.658;9.272;2024-03-23T13:29:39;43.97;;;28.30;;
41167;SDS011;26906;45.658;9.272;2024-03-23T13:32:06;45.92;;;29.05;;
41167;SDS011;26906;45.658;9.272;2024-03-23T13:34:35;40.75;;;27.48;;
41167;SDS011;26906;45.658;9.272;2024-03-23T13:37:00;43.80;;;26.00;;
41167;SDS011;26906;45.658;9.272;2024-03-23T13:39:27;38.92;;;27.13;;
41167;SDS011;26906;45.658;9.272;2024-03-23T13:41:52;46.65;;;27.17;;
41167;SDS011;26906;45.658;9.272;2024-03-23T13:44:19;40.03;;;27.27;;
41167;SDS011;26906;45.658;9.272;2024-03-23T13:46:45;40.65;;;26.67;;
41167;SDS011;26906;45.658;9.272;2024-03-23T13:49:28;42.10;;;26.17;;
41167;SDS011;26906;45.658;9.272;2024-03-23T13:51:58;38.55;;;26.20;;
41167;SDS011;26906;45.658;9.272;2024-03-23T13:54:26;40.53;;;26.20;;
41167;SDS011;26906;45.658;9.272;2024-03-23T13:56:54;39.72;;;27.42;;
41167;SDS011;26906;45.658;9.272;2024-03-23T13:59:20;43.65;;;27.75;;
41167;SDS011;26906;45.658;9.272;2024-03-23T14:01:48;38.72;;;26.33;;
41167;SDS011;26906;45.658;9.272;2024-03-23T14:04:15;40.28;;;26.45;;
41167;SDS011;26906;45.658;9.272;2024-03-23T14:06:42;37.75;;;25.55;;
41167;SDS011;26906;45.658;9.272;2024-03-23T14:09:14;37.53;;;25.48;;
41167;SDS011;26906;45.658;9.272;2024-03-23T14:11:45;35.20;;;24.45;;
41167;SDS011;26906;45.658;9.272;2024-03-23T14:14:10;38.13;;;25.55;;
41167;SDS011;26906;45.658;9.272;2024-03-23T14:16:36;37.67;;;25.55;;
41167;SDS011;26906;45.658;9.272;2024-03-23T14:19:02;36.55;;;24.60;;
41167;SDS011;26906;45.658;9.272;2024-03-23T14:21:29;35.53;;;24.70;;
41167;SDS011;26906;45.658;9.272;2024-03-23T14:23:55;34.75;;;23.23;;
41167;SDS011;26906;45.658;9.272;2024-03-23T14:26:21;32.53;;;21.80;;
41167;SDS011;26906;45.658;9.272;2024-03-23T14:28:47;35.50;;;22.45;;
41167;SDS011;26906;45.658;9.272;2024-03-23T14:31:12;32.72;;;21.45;;
41167;SDS011;26906;45.658;9.272;2024-03-23T14:33:38;34.75;;;22.05;;
41167;SDS011;26906;45.658;9.272;2024-03-23T14:36:10;30.13;;;19.88;;
41167;SDS011;26906;45.658;9.272;2024-03-23T14:38:37;33.42;;;22.38;;
41167;SDS011;26906;45.658;9.272;2024-03-23T14:41:03;34.63;;;21.83;;
41167;SDS011;26906;45.658;9.272;2024-03-23T14:43:31;34.33;;;22.38;;
41167;SDS011;26906;45.658;9.272;2024-03-23T14:46:07;34.88;;;21.77;;
41167;SDS011;26906;45.658;9.272;2024-03-23T14:48:41;40.50;;;22.40;;
41167;SDS011;26906;45.658;9.272;2024-03-23T14:51:07;36.20;;;22.48;;
41167;SDS011;26906;45.658;9.272;2024-03-23T14:53:36;38.55;;;22.83;;
41167;SDS011;26906;45.658;9.272;2024-03-23T14:56:09;36.88;;;23.55;;
41167;SDS011;26906;45.658;9.272;2024-03-23T14:58:38;32.78;;;20.85;;
41167;SDS011;26906;45.658;9.272;2024-03-23T15:01:04;33.00;;;20.77;;
41167;SDS011;26906;45.658;9.272;2024-03-23T15:03:38;41.70;;;20.48;;
41167;SDS011;26906;45.658;9.272;2024-03-23T15:06:20;29.30;;;19.40;;
41167;SDS011;26906;45.658;9.272;2024-03-23T15:08:46;26.00;;;17.33;;
41167;SDS011;26906;45.658;9.272;2024-03-23T15:11:11;37.17;;;19.42;;
41167;SDS011;26906;45.658;9.272;2024-03-23T15:13:38;35.53;;;19.77;;
41167;SDS011;26906;45.658;9.272;2024-03-23T15:16:04;35.15;;;20.35;;
41167;SDS011;26906;45.658;9.272;2024-03-23T15:18:33;34.35;;;20.63;;
41167;SDS011;26906;45.658;9.272;2024-03-23T15:21:01;36.30;;;20.48;;
41167;SDS011;26906;45.658;9.272;2024-03-23T15:23:28;36.63;;;20.60;;
41167;SDS011;26906;45.658;9.272;2024-03-23T15:25:57;35.65;;;21.23;;
41167;SDS011;26906;45.658;9.272;2024-03-23T15:28:23;32.60;;;20.85;;
41167;SDS011;26906;45.658;9.272;2024-03-23T15:31:06;37.55;;;21.90;;
41167;SDS011;26906;45.658;9.272;2024-03-23T15:33:34;33.08;;;21.58;;
41167;SDS011;26906;45.658;9.272;2024-03-23T15:36:03;33.15;;;21.65;;
41167;SDS011;26906;45.658;9.272;2024-03-23T15:38:31;33.25;;;21.63;;
41167;SDS011;26906;45.658;9.272;2024-03-23T15:40:57;35.03;;;20.40;;
41167;SDS011;26906;45.658;9.272;2024-03-23T15:43:23;30.20;;;20.30;;
41167;SDS011;26906;45.658;9.272;2024-03-23T15:45:55;32.45;;;20.98;;
41167;SDS011;26906;45.658;9.272;2024-03-23T15:48:25;33.45;;;21.50;;
41167;SDS011;26906;45.658;9.272;2024-03-23T15:50:58;35.13;;;21.85;;
41167;SDS011;26906;45.658;9.272;2024-03-23T15:53:25;36.00;;;20.52;;
41167;SDS011;26906;45.658;9.272;2024-03-23T15:55:55;36.28;;;20.10;;
41167;SDS011;26906;45.658;9.272;2024-03-23T15:58:21;29.70;;;20.08;;
41167;SDS011;26906;45.658;9.272;2024-03-23T16:00:59;30.92;;;19.77;;
41167;SDS011;26906;45.658;9.272;2024-03-23T16:03:26;35.30;;;19.73;;
41167;SDS011;26906;45.658;9.272;2024-03-23T16:05:53;42.60;;;22.58;;
41167;SDS011;26906;45.658;9.272;2024-03-23T16:08:23;33.92;;;21.15;;
41167;SDS011;26906;45.658;9.272;2024-03-23T16:10:51;30.50;;;20.45;;
41167;SDS011;26906;45.658;9.272;2024-03-23T16:13:17;32.10;;;19.77;;
41167;SDS011;26906;45.658;9.272;2024-03-23T16:15:55;31.67;;;20.00;;
41167;SDS011;26906;45.658;9.272;2024-03-23T16:18:22;34.80;;;20.42;;
41167;SDS011;26906;45.658;9.272;2024-03-23T16:20:54;32.17;;;20.70;;
41167;SDS011;26906;45.658;9.272;2024-03-23T16:23:20;36.63;;;20.73;;
41167;SDS011;26906;45.658;9.272;2024-03-23T16:25:48;35.17;;;20.73;;
41167;SDS011;26906;45.658;9.272;2024-03-23T16:28:21;31.38;;;19.80;;
41167;SDS011;26906;45.658;9.272;2024-03-23T16:30:57;34.55;;;20.73;;
41167;SDS011;26906;45.658;9.272;2024-03-23T16:33:24;32.83;;;19.17;;
41167;SDS011;26906;45.658;9.272;2024-03-23T16:35:57;30.13;;;19.60;;
41167;SDS011;26906;45.658;9.272;2024-03-23T16:38:26;33.58;;;19.75;;
41167;SDS011;26906;45.658;9.272;2024-03-23T16:41:01;30.08;;;19.58;;
41167;SDS011;26906;45.658;9.272;2024-03-23T16:43:27;35.08;;;21.58;;
41167;SDS011;26906;45.658;9.272;2024-03-23T16:45:54;33.53;;;21.58;;
41167;SDS011;26906;45.658;9.272;2024-03-23T16:48:25;34.35;;;22.38;;
41167;SDS011;26906;45.658;9.272;2024-03-23T16:50:56;33.83;;;20.75;;
41167;SDS011;26906;45.658;9.272;2024-03-23T16:53:24;37.42;;;21.05;;
41167;SDS011;26906;45.658;9.272;2024-03-23T16:55:54;37.70;;;22.52;;
41167;SDS011;26906;45.658;9.272;2024-03-23T16:58:22;31.52;;;20.00;;
41167;SDS011;26906;45.658;9.272;2024-03-23T17:01:07;33.75;;;21.67;;
41167;SDS011;26906;45.658;9.272;2024-03-23T17:03:34;38.78;;;21.85;;
41167;SDS011;26906;45.658;9.272;2024-03-23T17:06:03;32.90;;;21.63;;
41167;SDS011;26906;45.658;9.272;2024-03-23T17:08:31;39.95;;;22.60;;
41167;SDS011;26906;45.658;9.272;2024-03-23T17:11:01;37.30;;;22.33;;
41167;SDS011;26906;45.658;9.272;2024-03-23T17:13:30;36.47;;;22.85;;
41167;SDS011;26906;45.658;9.272;2024-03-23T17:15:59;36.88;;;22.67;;
41167;SDS011;26906;45.658;9.272;2024-03-23T17:18:25;41.10;;;22.10;;
41167;SDS011;26906;45.658;9.272;2024-03-23T17:20:51;33.28;;;22.75;;
41167;SDS011;26906;45.658;9.272;2024-03-23T17:23:23;30.73;;;22.00;;
41167;SDS011;26906;45.658;9.272;2024-03-23T17:25:53;34.65;;;22.10;;
41167;SDS011;26906;45.658;9.272;2024-03-23T17:28:19;36.70;;;20.95;;
41167;SDS011;26906;45.658;9.272;2024-03-23T17:30:45;38.35;;;22.58;;
41167;SDS011;26906;45.658;9.272;2024-03-23T17:33:12;31.23;;;19.88;;
41167;SDS011;26906;45.658;9.272;2024-03-23T17:35:38;26.58;;;17.00;;
41167;SDS011;26906;45.658;9.272;2024-03-23T17:38:05;30.00;;;14.45;;
41167;SDS011;26906;45.658;9.272;2024-03-23T17:40:31;21.02;;;11.60;;
41167;SDS011;26906;45.658;9.272;2024-03-23T17:42:57;17.75;;;10.40;;
41167;SDS011;26906;45.658;9.272;2024-03-23T17:45:24;12.82;;;9.13;;
41167;SDS011;26906;45.658;9.272;2024-03-23T17:47:49;16.58;;;7.88;;
41167;SDS011;26906;45.658;9.272;2024-03-23T17:50:16;14.43;;;6.25;;
41167;SDS011;26906;45.658;9.272;2024-03-23T17:52:43;19.70;;;6.25;;
41167;SDS011;26906;45.658;9.272;2024-03-23T17:55:09;11.27;;;6.22;;
41167;SDS011;26906;45.658;9.272;2024-03-23T17:57:37;8.82;;;5.35;;
41167;SDS011;26906;45.658;9.272;2024-03-23T18:00:02;12.32;;;5.22;;
41167;SDS011;26906;45.658;9.272;2024-03-23T18:02:38;9.90;;;4.93;;
41167;SDS011;26906;45.658;9.272;2024-03-23T18:05:04;11.35;;;5.50;;
41167;SDS011;26906;45.658;9.272;2024-03-23T18:07:30;8.52;;;5.40;;
41167;SDS011;26906;45.658;9.272;2024-03-23T18:09:57;14.75;;;6.85;;
41167;SDS011;26906;45.658;9.272;2024-03-23T18:12:23;9.65;;;5.43;;
41167;SDS011;26906;45.658;9.272;2024-03-23T18:14:49;8.77;;;4.40;;
41167;SDS011;26906;45.658;9.272;2024-03-23T18:17:15;7.80;;;4.20;;
41167;SDS011;26906;45.658;9.272;2024-03-23T18:19:40;8.25;;;5.10;;
41167;SDS011;26906;45.658;9.272;2024-03-23T18:22:06;8.80;;;4.15;;
41167;SDS011;26906;45.658;9.272;2024-03-23T18:24:32;9.77;;;4.18;;
41167;SDS011;26906;45.658;9.272;2024-03-23T18:26:57;9.70;;;4.80;;
41167;SDS011;26906;45.658;9.272;2024-03-23T18:29:23;8.50;;;5.28;;
41167;SDS011;26906;45.658;9.272;2024-03-23T18:31:48;7.85;;;4.90;;
41167;SDS011;26906;45.658;9.272;2024-03-23T18:34:15;9.40;;;5.55;;
41167;SDS011;26906;45.658;9.272;2024-03-23T18:36:41;9.88;;;4.75;;
41167;SDS011;26906;45.658;9.272;2024-03-23T18:39:07;10.93;;;5.35;;
41167;SDS011;26906;45.658;9.272;2024-03-23T18:41:33;4.25;;;2.90;;
41167;SDS011;26906;45.658;9.272;2024-03-23T18:43:59;4.10;;;2.83;;
41167;SDS011;26906;45.658;9.272;2024-03-23T18:46:26;5.22;;;2.25;;
41167;SDS011;26906;45.658;9.272;2024-03-23T18:48:53;4.47;;;2.42;;
41167;SDS011;26906;45.658;9.272;2024-03-23T18:51:20;8.90;;;4.93;;
41167;SDS011;26906;45.658;9.272;2024-03-23T18:53:46;6.57;;;4.40;;
41167;SDS011;26906;45.658;9.272;2024-03-23T18:56:14;7.70;;;4.57;;
41167;SDS011;26906;45.658;9.272;2024-03-23T18:58:40;6.90;;;3.13;;
41167;SDS011;26906;45.658;9.272;2024-03-23T19:01:06;5.22;;;2.30;;
41167;SDS011;26906;45.658;9.272;2024-03-23T19:03:32;4.30;;;2.55;;
41167;SDS011;26906;45.658;9.272;2024-03-23T19:05:59;9.38;;;3.42;;
41167;SDS011;26906;45.658;9.272;2024-03-23T19:08:27;4.57;;;2.65;;
41167;SDS011;26906;45.658;9.272;2024-03-23T19:10:53;5.00;;;2.72;;
41167;SDS011;26906;45.658;9.272;2024-03-23T19:13:20;8.43;;;5.15;;
41167;SDS011;26906;45.658;9.272;2024-03-23T19:15:46;11.13;;;4.25;;
41167;SDS011;26906;45.658;9.272;2024-03-23T19:18:13;3.47;;;2.42;;
41167;SDS011;26906;45.658;9.272;2024-03-23T19:20:39;5.93;;;3.78;;
41167;SDS011;26906;45.658;9.272;2024-03-23T19:23:06;12.30;;;6.43;;
41167;SDS011;26906;45.658;9.272;2024-03-23T19:25:33;18.17;;;9.10;;
41167;SDS011;26906;45.658;9.272;2024-03-23T19:27:59;9.88;;;5.82;;
41167;SDS011;26906;45.658;9.272;2024-03-23T19:30:30;7.45;;;3.60;;
41167;SDS011;26906;45.658;9.272;2024-03-23T19:32:57;3.95;;;2.60;;
41167;SDS011;26906;45.658;9.272;2024-03-23T19:35:26;6.88;;;3.10;;
41167;SDS011;26906;45.658;9.272;2024-03-23T19:37:52;8.35;;;3.20;;
41167;SDS011;26906;45.658;9.272;2024-03-23T19:40:19;4.07;;;2.22;;
41167;SDS011;26906;45.658;9.272;2024-03-23T19:42:45;4.05;;;1.67;;
41167;SDS011;26906;45.658;9.272;2024-03-23T19:45:11;5.35;;;3.65;;
41167;SDS011;26906;45.658;9.272;2024-03-23T19:47:38;6.55;;;2.78;;
41167;SDS011;26906;45.658;9.272;2024-03-23T19:50:05;2.72;;;1.98;;
41167;SDS011;26906;45.658;9.272;2024-03-23T19:52:35;3.33;;;1.73;;
41167;SDS011;26906;45.658;9.272;2024-03-23T19:55:05;2.50;;;1.50;;
41167;SDS011;26906;45.658;9.272;2024-03-23T19:57:31;4.03;;;1.30;;
41167;SDS011;26906;45.658;9.272;2024-03-23T19:59:57;2.13;;;1.33;;
41167;SDS011;26906;45.658;9.272;2024-03-23T20:02:23;2.58;;;1.45;;
41167;SDS011;26906;45.658;9.272;2024-03-23T20:04:49;1.48;;;0.85;;
41167;SDS011;26906;45.658;9.272;2024-03-23T20:07:16;3.25;;;1.00;;
41167;SDS011;26906;45.658;9.272;2024-03-23T20:09:42;1.90;;;1.20;;
41167;SDS011;26906;45.658;9.272;2024-03-23T20:12:08;5.22;;;1.13;;
41167;SDS011;26906;45.658;9.272;2024-03-23T20:14:35;2.75;;;0.90;;
41167;SDS011;26906;45.658;9.272;2024-03-23T20:17:02;1.33;;;0.90;;
41167;SDS011;26906;45.658;9.272;2024-03-23T20:19:29;1.67;;;1.10;;
41167;SDS011;26906;45.658;9.272;2024-03-23T20:21:55;1.27;;;0.80;;
41167;SDS011;26906;45.658;9.272;2024-03-23T20:24:21;2.55;;;1.27;;
41167;SDS011;26906;45.658;9.272;2024-03-23T20:26:47;1.48;;;1.13;;
41167;SDS011;26906;45.658;9.272;2024-03-23T20:29:13;2.28;;;0.85;;
41167;SDS011;26906;45.658;9.272;2024-03-23T20:31:39;1.13;;;0.60;;
41167;SDS011;26906;45.658;9.272;2024-03-23T20:34:06;1.05;;;0.60;;
41167;SDS011;26906;45.658;9.272;2024-03-23T20:36:33;1.77;;;0.77;;
41167;SDS011;26906;45.658;9.272;2024-03-23T20:38:58;7.70;;;0.70;;
41167;SDS011;26906;45.658;9.272;2024-03-23T20:41:24;1.98;;;0.70;;
41167;SDS011;26906;45.658;9.272;2024-03-23T20:43:50;1.52;;;0.70;;
41167;SDS011;26906;45.658;9.272;2024-03-23T20:46:15;1.85;;;0.50;;
41167;SDS011;26906;45.658;9.272;2024-03-23T20:48:41;2.30;;;0.52;;
41167;SDS011;26906;45.658;9.272;2024-03-23T20:51:13;0.50;;;0.50;;
41167;SDS011;26906;45.658;9.272;2024-03-23T20:53:39;2.65;;;0.50;;
41167;SDS011;26906;45.658;9.272;2024-03-23T20:56:06;2.03;;;0.60;;
41167;SDS011;26906;45.658;9.272;2024-03-23T20:58:34;1.23;;;0.60;;
41167;SDS011;26906;45.658;9.272;2024-03-23T21:01:00;1.33;;;0.50;;
41167;SDS011;26906;45.658;9.272;2024-03-23T21:03:28;1.48;;;0.70;;
41167;SDS011;26906;45.658;9.272;2024-03-23T21:05:55;1.15;;;0.60;;
41167;SDS011;26906;45.658;9.272;2024-03-23T21:08:21;1.77;;;0.85;;
41167;SDS011;26906;45.658;9.272;2024-03-23T21:13:16;1.73;;;0.75;;
41167;SDS011;26906;45.658;9.272;2024-03-23T21:15:46;0.70;;;0.63;;
41167;SDS011;26906;45.658;9.272;2024-03-23T21:18:13;6.97;;;0.80;;
41167;SDS011;26906;45.658;9.272;2024-03-23T21:20:39;2.97;;;0.60;;
41167;SDS011;26906;45.658;9.272;2024-03-23T21:23:05;1.55;;;0.50;;